sensor_id;sensor_type;location;lat;lon;timestamp;pressure;altitude;pressure_sealevel;temperature;humidity
51195;BME280;37259;49.972;19.850;2022-10-17T00:00:50;99810;;;11.2;85.4
51195;BME280;37259;49.972;19.850;2022-10-17T00:01:50;99820;;;11.2;85.5
51195;BME280;37259;49.972;19.850;2022-10-17T00:02:50;99810;;;11.2;85.5
51195;BME280;37259;49.972;19.850;2022-10-17T00:03:50;99810;;;11.2;85.5
51195;BME280;37259;49.972;19.850;2022-10-17T00:04:50;99810;;;11.2;86.2
51195;BME280;37259;49.972;19.850;2022-10-17T00:05:50;99810;;;11.2;86.1
51195;BME280;37259;49.972;19.850;2022-10-17T00:06:50;99820;;;11.2;86.1
51195;BME280;37259;49.972;19.850;2022-10-17T00:07:51;99810;;;11.2;86.2
51195;BME280;37259;49.972;19.850;2022-10-17T00:08:50;99810;;;11.2;86.2
51195;BME280;37259;49.972;19.850;2022-10-17T00:09:50;99820;;;11.2;86.3
51195;BME280;37259;49.972;19.850;2022-10-17T00:10:54;99820;;;11.2;86.3
51195;BME280;37259;49.972;19.850;2022-10-17T00:11:50;99820;;;11.2;86.3
51195;BME280;37259;49.972;19.850;2022-10-17T00:12:51;99820;;;11.2;86.4
51195;BME280;37259;49.972;19.850;2022-10-17T00:13:52;99820;;;11.2;86.4
51195;BME280;37259;49.972;19.850;2022-10-17T00:14:50;99820;;;11.2;86.4
51195;BME280;37259;49.972;19.850;2022-10-17T00:15:51;99820;;;11.2;86.3
51195;BME280;37259;49.972;19.850;2022-10-17T00:16:50;99820;;;11.2;86.3
51195;BME280;37259;49.972;19.850;2022-10-17T00:17:50;99820;;;11.2;86.3
51195;BME280;37259;49.972;19.850;2022-10-17T00:18:50;99820;;;11.2;86.2
51195;BME280;37259;49.972;19.850;2022-10-17T00:19:50;99820;;;11.2;86.1
51195;BME280;37259;49.972;19.850;2022-10-17T00:20:51;99820;;;11.1;86.1
51195;BME280;37259;49.972;19.850;2022-10-17T00:21:50;99820;;;11.1;86
51195;BME280;37259;49.972;19.850;2022-10-17T00:22:51;99830;;;11.1;86
51195;BME280;37259;49.972;19.850;2022-10-17T00:23:51;99830;;;11.1;86
51195;BME280;37259;49.972;19.850;2022-10-17T00:24:50;99820;;;11.1;86
51195;BME280;37259;49.972;19.850;2022-10-17T00:25:56;99820;;;11.1;86
51195;BME280;37259;49.972;19.850;2022-10-17T00:26:50;99820;;;11.1;85.9
51195;BME280;37259;49.972;19.850;2022-10-17T00:27:50;99820;;;11.1;85.9
51195;BME280;37259;49.972;19.850;2022-10-17T00:28:51;99820;;;11;86.5
51195;BME280;37259;49.972;19.850;2022-10-17T00:29:50;99820;;;11;86.6
51195;BME280;37259;49.972;19.850;2022-10-17T00:30:54;99820;;;11;86.7
51195;BME280;37259;49.972;19.850;2022-10-17T00:31:52;99820;;;11;86.7
51195;BME280;37259;49.972;19.850;2022-10-17T00:32:50;99820;;;11;86.8
51195;BME280;37259;49.972;19.850;2022-10-17T00:33:51;99820;;;11;86.8
51195;BME280;37259;49.972;19.850;2022-10-17T00:34:50;99830;;;11;86.8
51195;BME280;37259;49.972;19.850;2022-10-17T00:35:50;99830;;;11;86.8
51195;BME280;37259;49.972;19.850;2022-10-17T00:36:50;99830;;;11;86.8
51195;BME280;37259;49.972;19.850;2022-10-17T00:37:50;99830;;;11;86.7
51195;BME280;37259;49.972;19.850;2022-10-17T00:38:51;99830;;;10.9;86.6
51195;BME280;37259;49.972;19.850;2022-10-17T00:39:51;99830;;;10.9;86.6
51195;BME280;37259;49.972;19.850;2022-10-17T00:40:50;99840;;;10.9;86.5
51195;BME280;37259;49.972;19.850;2022-10-17T00:41:50;99840;;;10.9;86.5
51195;BME280;37259;49.972;19.850;2022-10-17T00:42:50;99840;;;10.9;86.4
51195;BME280;37259;49.972;19.850;2022-10-17T00:43:51;99840;;;10.9;86.4
51195;BME280;37259;49.972;19.850;2022-10-17T00:44:57;99840;;;10.8;86.4
51195;BME280;37259;49.972;19.850;2022-10-17T00:45:51;99840;;;10.8;86.3
51195;BME280;37259;49.972;19.850;2022-10-17T00:46:50;99840;;;10.8;86.3
51195;BME280;37259;49.972;19.850;2022-10-17T00:47:52;99840;;;10.8;86.4
51195;BME280;37259;49.972;19.850;2022-10-17T00:48:51;99840;;;10.7;86.4
51195;BME280;37259;49.972;19.850;2022-10-17T00:49:50;99840;;;10.7;86.4
51195;BME280;37259;49.972;19.850;2022-10-17T00:50:51;99840;;;10.7;86.4
51195;BME280;37259;49.972;19.850;2022-10-17T00:51:51;99840;;;10.7;86.4
51195;BME280;37259;49.972;19.850;2022-10-17T00:52:51;99830;;;10.7;86.4
51195;BME280;37259;49.972;19.850;2022-10-17T00:53:50;99830;;;10.7;86.4
51195;BME280;37259;49.972;19.850;2022-10-17T00:54:52;99830;;;10.7;86.2
51195;BME280;37259;49.972;19.850;2022-10-17T00:55:51;99840;;;10.7;86.2
51195;BME280;37259;49.972;19.850;2022-10-17T00:56:51;99840;;;10.6;86.3
51195;BME280;37259;49.972;19.850;2022-10-17T00:57:50;99840;;;10.6;86.3
51195;BME280;37259;49.972;19.850;2022-10-17T00:58:50;99840;;;10.5;86.5
51195;BME280;37259;49.972;19.850;2022-10-17T00:59:51;99840;;;10.6;86.6
51195;BME280;37259;49.972;19.850;2022-10-17T01:00:50;99840;;;10.6;86.6
51195;BME280;37259;49.972;19.850;2022-10-17T01:01:52;99840;;;10.6;86.8
51195;BME280;37259;49.972;19.850;2022-10-17T01:02:50;99840;;;10.6;86.8
51195;BME280;37259;49.972;19.850;2022-10-17T01:03:51;99840;;;10.6;87
51195;BME280;37259;49.972;19.850;2022-10-17T01:04:51;99840;;;10.6;87
51195;BME280;37259;49.972;19.850;2022-10-17T01:05:50;99830;;;10.6;87.1
51195;BME280;37259;49.972;19.850;2022-10-17T01:06:51;99840;;;10.6;87.2
51195;BME280;37259;49.972;19.850;2022-10-17T01:07:51;99840;;;10.6;87.2
51195;BME280;37259;49.972;19.850;2022-10-17T01:08:50;99830;;;10.6;87.2
51195;BME280;37259;49.972;19.850;2022-10-17T01:09:50;99830;;;10.6;87.2
51195;BME280;37259;49.972;19.850;2022-10-17T01:10:53;99830;;;10.6;87.3
51195;BME280;37259;49.972;19.850;2022-10-17T01:11:51;99830;;;10.6;87.3
51195;BME280;37259;49.972;19.850;2022-10-17T01:12:54;99830;;;10.6;87.4
51195;BME280;37259;49.972;19.850;2022-10-17T01:13:51;99830;;;10.6;87.4
51195;BME280;37259;49.972;19.850;2022-10-17T01:14:58;99830;;;10.6;87.4
51195;BME280;37259;49.972;19.850;2022-10-17T01:15:53;99830;;;10.6;87.4
51195;BME280;37259;49.972;19.850;2022-10-17T01:16:52;99830;;;10.6;87.4
51195;BME280;37259;49.972;19.850;2022-10-17T01:17:53;99830;;;10.6;87.5
51195;BME280;37259;49.972;19.850;2022-10-17T01:18:54;99830;;;10.6;87.5
51195;BME280;37259;49.972;19.850;2022-10-17T01:19:57;99830;;;10.6;87.5
51195;BME280;37259;49.972;19.850;2022-10-17T01:20:57;99830;;;10.6;87.6
51195;BME280;37259;49.972;19.850;2022-10-17T01:21:51;99830;;;10.6;87.6
51195;BME280;37259;49.972;19.850;2022-10-17T01:22:52;99830;;;10.7;88
51195;BME280;37259;49.972;19.850;2022-10-17T01:24:59;99830;;;10.7;88.2
51195;BME280;37259;49.972;19.850;2022-10-17T01:25:01;99830;;;10.7;88.2
51195;BME280;37259;49.972;19.850;2022-10-17T01:25:51;99830;;;10.7;88.5
51195;BME280;37259;49.972;19.850;2022-10-17T01:27:03;99830;;;10.7;88.5
51195;BME280;37259;49.972;19.850;2022-10-17T01:27:52;99830;;;10.7;88.8
51195;BME280;37259;49.972;19.850;2022-10-17T01:28:58;99830;;;10.7;89.1
51195;BME280;37259;49.972;19.850;2022-10-17T01:29:55;99830;;;10.7;89.1
51195;BME280;37259;49.972;19.850;2022-10-17T01:30:53;99830;;;10.7;89.1
51195;BME280;37259;49.972;19.850;2022-10-17T01:31:51;99830;;;10.7;89.1
51195;BME280;37259;49.972;19.850;2022-10-17T01:32:51;99830;;;10.7;89.1
51195;BME280;37259;49.972;19.850;2022-10-17T01:33:53;99830;;;10.8;89.3
51195;BME280;37259;49.972;19.850;2022-10-17T01:34:52;99830;;;10.8;89.3
51195;BME280;37259;49.972;19.850;2022-10-17T01:35:51;99830;;;10.8;89.3
51195;BME280;37259;49.972;19.850;2022-10-17T01:36:52;99830;;;10.8;89.3
51195;BME280;37259;49.972;19.850;2022-10-17T01:37:52;99840;;;10.8;89.4
51195;BME280;37259;49.972;19.850;2022-10-17T01:38:52;99840;;;10.8;89.4
51195;BME280;37259;49.972;19.850;2022-10-17T01:39:51;99840;;;10.8;89.3
51195;BME280;37259;49.972;19.850;2022-10-17T01:40:51;99840;;;10.8;89.3
51195;BME280;37259;49.972;19.850;2022-10-17T01:41:51;99830;;;10.9;89.3
51195;BME280;37259;49.972;19.850;2022-10-17T01:42:52;99840;;;10.9;89.3
51195;BME280;37259;49.972;19.850;2022-10-17T01:43:52;99830;;;10.9;89.2
51195;BME280;37259;49.972;19.850;2022-10-17T01:44:52;99830;;;10.9;89.2
51195;BME280;37259;49.972;19.850;2022-10-17T01:45:51;99830;;;10.9;89.2
51195;BME280;37259;49.972;19.850;2022-10-17T01:46:51;99830;;;10.9;89.2
51195;BME280;37259;49.972;19.850;2022-10-17T01:47:51;99840;;;10.9;89
51195;BME280;37259;49.972;19.850;2022-10-17T01:48:50;99840;;;10.9;89
51195;BME280;37259;49.972;19.850;2022-10-17T01:49:50;99840;;;10.9;88.8
51195;BME280;37259;49.972;19.850;2022-10-17T01:50:51;99840;;;10.9;88.8
51195;BME280;37259;49.972;19.850;2022-10-17T01:51:51;99840;;;10.8;88.4
51195;BME280;37259;49.972;19.850;2022-10-17T01:52:51;99840;;;10.8;88.4
51195;BME280;37259;49.972;19.850;2022-10-17T01:53:51;99840;;;10.8;88.2
51195;BME280;37259;49.972;19.850;2022-10-17T01:54:51;99840;;;10.8;88.1
51195;BME280;37259;49.972;19.850;2022-10-17T01:55:51;99840;;;10.8;88.1
51195;BME280;37259;49.972;19.850;2022-10-17T01:56:51;99840;;;10.7;88
51195;BME280;37259;49.972;19.850;2022-10-17T01:57:51;99840;;;10.7;88
51195;BME280;37259;49.972;19.850;2022-10-17T01:58:51;99840;;;10.7;87.9
51195;BME280;37259;49.972;19.850;2022-10-17T01:59:51;99840;;;10.7;87.7
51195;BME280;37259;49.972;19.850;2022-10-17T02:00:50;99840;;;10.7;87.7
51195;BME280;37259;49.972;19.850;2022-10-17T02:01:51;99840;;;10.7;87.7
51195;BME280;37259;49.972;19.850;2022-10-17T02:02:51;99840;;;10.6;87.5
51195;BME280;37259;49.972;19.850;2022-10-17T02:03:50;99840;;;10.6;87.5
51195;BME280;37259;49.972;19.850;2022-10-17T02:04:50;99840;;;10.6;87.5
51195;BME280;37259;49.972;19.850;2022-10-17T02:05:51;99840;;;10.6;87.4
51195;BME280;37259;49.972;19.850;2022-10-17T02:06:50;99840;;;10.6;87.4
51195;BME280;37259;49.972;19.850;2022-10-17T02:07:50;99840;;;10.6;87.4
51195;BME280;37259;49.972;19.850;2022-10-17T02:08:50;99840;;;10.6;87.4
51195;BME280;37259;49.972;19.850;2022-10-17T02:09:50;99840;;;10.6;87.4
51195;BME280;37259;49.972;19.850;2022-10-17T02:10:52;99840;;;10.6;87.3
51195;BME280;37259;49.972;19.850;2022-10-17T02:11:56;99840;;;10.6;87.3
51195;BME280;37259;49.972;19.850;2022-10-17T02:12:52;99840;;;10.5;87.2
51195;BME280;37259;49.972;19.850;2022-10-17T02:13:58;99840;;;10.5;87.2
51195;BME280;37259;49.972;19.850;2022-10-17T02:14:54;99840;;;10.5;87.2
51195;BME280;37259;49.972;19.850;2022-10-17T02:15:57;99840;;;10.5;87.2
51195;BME280;37259;49.972;19.850;2022-10-17T02:16:52;99840;;;10.5;87.2
51195;BME280;37259;49.972;19.850;2022-10-17T02:17:53;99840;;;10.5;87.1
51195;BME280;37259;49.972;19.850;2022-10-17T02:18:57;99840;;;10.5;87.1
51195;BME280;37259;49.972;19.850;2022-10-17T02:19:54;99840;;;10.5;87.2
51195;BME280;37259;49.972;19.850;2022-10-17T02:20:52;99840;;;10.5;87.2
51195;BME280;37259;49.972;19.850;2022-10-17T02:21:52;99840;;;10.4;87.2
51195;BME280;37259;49.972;19.850;2022-10-17T02:22:51;99840;;;10.4;87.2
51195;BME280;37259;49.972;19.850;2022-10-17T02:23:51;99840;;;10.4;87.3
51195;BME280;37259;49.972;19.850;2022-10-17T02:24:51;99840;;;10.4;87.3
51195;BME280;37259;49.972;19.850;2022-10-17T02:25:52;99840;;;10.4;87.3
51195;BME280;37259;49.972;19.850;2022-10-17T02:26:51;99840;;;10.4;87.3
51195;BME280;37259;49.972;19.850;2022-10-17T02:27:51;99840;;;10.4;87.3
51195;BME280;37259;49.972;19.850;2022-10-17T02:28:51;99840;;;10.4;87.4
51195;BME280;37259;49.972;19.850;2022-10-17T02:29:53;99840;;;10.4;87.4
51195;BME280;37259;49.972;19.850;2022-10-17T02:30:52;99850;;;10.4;87.4
51195;BME280;37259;49.972;19.850;2022-10-17T02:31:53;99840;;;10.4;87.5
51195;BME280;37259;49.972;19.850;2022-10-17T02:32:51;99840;;;10.4;87.5
51195;BME280;37259;49.972;19.850;2022-10-17T02:33:51;99840;;;10.4;87.5
51195;BME280;37259;49.972;19.850;2022-10-17T02:34:51;99840;;;10.3;87.6
51195;BME280;37259;49.972;19.850;2022-10-17T02:35:51;99840;;;10.3;87.5
51195;BME280;37259;49.972;19.850;2022-10-17T02:36:51;99850;;;10.3;87.5
51195;BME280;37259;49.972;19.850;2022-10-17T02:37:50;99840;;;10.3;87.5
51195;BME280;37259;49.972;19.850;2022-10-17T02:38:51;99840;;;10.3;87.5
51195;BME280;37259;49.972;19.850;2022-10-17T02:39:50;99840;;;10.3;87.4
51195;BME280;37259;49.972;19.850;2022-10-17T02:40:50;99840;;;10.3;87.4
51195;BME280;37259;49.972;19.850;2022-10-17T02:41:51;99850;;;10.3;87.4
51195;BME280;37259;49.972;19.850;2022-10-17T02:42:50;99850;;;10.2;87.4
51195;BME280;37259;49.972;19.850;2022-10-17T02:43:50;99850;;;10.2;87.3
51195;BME280;37259;49.972;19.850;2022-10-17T02:44:51;99850;;;10.2;87.3
51195;BME280;37259;49.972;19.850;2022-10-17T02:45:50;99840;;;10.2;87.4
51195;BME280;37259;49.972;19.850;2022-10-17T02:47:06;99840;;;10.2;87.4
51195;BME280;37259;49.972;19.850;2022-10-17T02:47:53;99840;;;10.2;87.4
51195;BME280;37259;49.972;19.850;2022-10-17T02:48:51;99840;;;10.2;87.4
51195;BME280;37259;49.972;19.850;2022-10-17T02:49:51;99840;;;10.2;87.4
51195;BME280;37259;49.972;19.850;2022-10-17T02:50:51;99840;;;10.2;87.4
51195;BME280;37259;49.972;19.850;2022-10-17T02:51:51;99850;;;10.2;87.4
51195;BME280;37259;49.972;19.850;2022-10-17T02:52:51;99850;;;10.2;87.4
51195;BME280;37259;49.972;19.850;2022-10-17T02:53:52;99850;;;10.2;87.5
51195;BME280;37259;49.972;19.850;2022-10-17T02:54:51;99850;;;10.2;87.5
51195;BME280;37259;49.972;19.850;2022-10-17T02:55:52;99850;;;10.2;87.7
51195;BME280;37259;49.972;19.850;2022-10-17T02:56:52;99850;;;10.2;88.2
51195;BME280;37259;49.972;19.850;2022-10-17T02:57:51;99850;;;10.2;88.2
51195;BME280;37259;49.972;19.850;2022-10-17T02:58:51;99850;;;10.2;88.4
51195;BME280;37259;49.972;19.850;2022-10-17T02:59:50;99850;;;10.2;88.4
51195;BME280;37259;49.972;19.850;2022-10-17T03:00:50;99850;;;10.2;88.5
51195;BME280;37259;49.972;19.850;2022-10-17T03:01:50;99850;;;10.2;88.5
51195;BME280;37259;49.972;19.850;2022-10-17T03:02:51;99850;;;10.2;88.5
51195;BME280;37259;49.972;19.850;2022-10-17T03:03:50;99850;;;10.2;88.5
51195;BME280;37259;49.972;19.850;2022-10-17T03:04:50;99850;;;10.2;88.7
51195;BME280;37259;49.972;19.850;2022-10-17T03:05:51;99850;;;10.2;88.7
51195;BME280;37259;49.972;19.850;2022-10-17T03:06:50;99860;;;10.2;88.8
51195;BME280;37259;49.972;19.850;2022-10-17T03:07:51;99860;;;10.2;88.8
51195;BME280;37259;49.972;19.850;2022-10-17T03:08:50;99860;;;10.2;88.7
51195;BME280;37259;49.972;19.850;2022-10-17T03:09:51;99860;;;10.2;88.7
51195;BME280;37259;49.972;19.850;2022-10-17T03:10:51;99860;;;10.2;88.7
51195;BME280;37259;49.972;19.850;2022-10-17T03:11:50;99860;;;10.2;88.6
51195;BME280;37259;49.972;19.850;2022-10-17T03:12:51;99860;;;10.2;88.6
51195;BME280;37259;49.972;19.850;2022-10-17T03:13:50;99860;;;10.1;88.5
51195;BME280;37259;49.972;19.850;2022-10-17T03:14:50;99860;;;10.1;88.5
51195;BME280;37259;49.972;19.850;2022-10-17T03:15:50;99860;;;10.1;88.4
51195;BME280;37259;49.972;19.850;2022-10-17T03:16:50;99860;;;10.1;88.4
51195;BME280;37259;49.972;19.850;2022-10-17T03:17:50;99860;;;10.1;88.3
51195;BME280;37259;49.972;19.850;2022-10-17T03:18:50;99860;;;10.1;88.3
51195;BME280;37259;49.972;19.850;2022-10-17T03:19:50;99870;;;10.1;88.3
51195;BME280;37259;49.972;19.850;2022-10-17T03:20:50;99870;;;10.1;88.3
51195;BME280;37259;49.972;19.850;2022-10-17T03:21:51;99870;;;10.1;88.3
51195;BME280;37259;49.972;19.850;2022-10-17T03:22:50;99870;;;10.1;88.3
51195;BME280;37259;49.972;19.850;2022-10-17T03:23:50;99880;;;10.1;88.2
51195;BME280;37259;49.972;19.850;2022-10-17T03:24:51;99880;;;10.1;88.2
51195;BME280;37259;49.972;19.850;2022-10-17T03:25:50;99880;;;10.1;88.1
51195;BME280;37259;49.972;19.850;2022-10-17T03:26:50;99880;;;10.1;88.1
51195;BME280;37259;49.972;19.850;2022-10-17T03:27:50;99880;;;10;88
51195;BME280;37259;49.972;19.850;2022-10-17T03:28:50;99880;;;10;88
51195;BME280;37259;49.972;19.850;2022-10-17T03:29:51;99880;;;10;88
51195;BME280;37259;49.972;19.850;2022-10-17T03:30:50;99880;;;10;87.9
51195;BME280;37259;49.972;19.850;2022-10-17T03:31:50;99880;;;10;87.9
51195;BME280;37259;49.972;19.850;2022-10-17T03:32:50;99880;;;10;87.8
51195;BME280;37259;49.972;19.850;2022-10-17T03:33:51;99880;;;10;87.8
51195;BME280;37259;49.972;19.850;2022-10-17T03:34:50;99880;;;10;87.8
51195;BME280;37259;49.972;19.850;2022-10-17T03:35:50;99880;;;10;87.8
51195;BME280;37259;49.972;19.850;2022-10-17T03:36:50;99890;;;9.9;87.8
51195;BME280;37259;49.972;19.850;2022-10-17T03:37:50;99890;;;9.9;87.8
51195;BME280;37259;49.972;19.850;2022-10-17T03:38:52;99890;;;9.9;87.8
51195;BME280;37259;49.972;19.850;2022-10-17T03:39:51;99890;;;9.9;87.8
51195;BME280;37259;49.972;19.850;2022-10-17T03:40:53;99890;;;9.9;87.9
51195;BME280;37259;49.972;19.850;2022-10-17T03:41:50;99890;;;9.9;88
51195;BME280;37259;49.972;19.850;2022-10-17T03:42:50;99890;;;9.9;88
51195;BME280;37259;49.972;19.850;2022-10-17T03:43:51;99890;;;9.9;88.3
51195;BME280;37259;49.972;19.850;2022-10-17T03:44:51;99890;;;9.9;88.4
51195;BME280;37259;49.972;19.850;2022-10-17T03:45:50;99890;;;9.9;88.4
51195;BME280;37259;49.972;19.850;2022-10-17T03:46:50;99890;;;9.9;88.4
51195;BME280;37259;49.972;19.850;2022-10-17T03:47:50;99900;;;9.8;88.5
51195;BME280;37259;49.972;19.850;2022-10-17T03:48:50;99900;;;9.8;88.5
51195;BME280;37259;49.972;19.850;2022-10-17T03:49:50;99900;;;9.8;88.5
51195;BME280;37259;49.972;19.850;2022-10-17T03:50:51;99900;;;9.8;88.5
51195;BME280;37259;49.972;19.850;2022-10-17T03:51:50;99900;;;9.8;88.5
51195;BME280;37259;49.972;19.850;2022-10-17T03:52:50;99900;;;9.8;88.5
51195;BME280;37259;49.972;19.850;2022-10-17T03:53:51;99900;;;9.8;88.5
51195;BME280;37259;49.972;19.850;2022-10-17T03:54:50;99900;;;9.8;88.5
51195;BME280;37259;49.972;19.850;2022-10-17T03:55:50;99900;;;9.8;88.5
51195;BME280;37259;49.972;19.850;2022-10-17T03:56:51;99900;;;9.8;88.5
51195;BME280;37259;49.972;19.850;2022-10-17T03:57:51;99900;;;9.8;88.7
51195;BME280;37259;49.972;19.850;2022-10-17T03:58:51;99900;;;9.8;88.7
51195;BME280;37259;49.972;19.850;2022-10-17T03:59:51;99900;;;9.9;89.1
51195;BME280;37259;49.972;19.850;2022-10-17T04:00:50;99900;;;9.9;89.1
51195;BME280;37259;49.972;19.850;2022-10-17T04:01:51;99900;;;9.9;89.4
51195;BME280;37259;49.972;19.850;2022-10-17T04:02:51;99900;;;9.9;89.4
51195;BME280;37259;49.972;19.850;2022-10-17T04:03:51;99900;;;9.9;89.5
51195;BME280;37259;49.972;19.850;2022-10-17T04:04:50;99900;;;9.9;89.5
51195;BME280;37259;49.972;19.850;2022-10-17T04:05:50;99900;;;10;89.5
51195;BME280;37259;49.972;19.850;2022-10-17T04:06:50;99900;;;10;89.5
51195;BME280;37259;49.972;19.850;2022-10-17T04:07:50;99900;;;10;89.6
51195;BME280;37259;49.972;19.850;2022-10-17T04:08:51;99900;;;10;89.6
51195;BME280;37259;49.972;19.850;2022-10-17T04:09:51;99900;;;10;89.6
51195;BME280;37259;49.972;19.850;2022-10-17T04:10:50;99900;;;10;89.6
51195;BME280;37259;49.972;19.850;2022-10-17T04:11:51;99900;;;10;89.6
51195;BME280;37259;49.972;19.850;2022-10-17T04:12:50;99900;;;10;89.6
51195;BME280;37259;49.972;19.850;2022-10-17T04:13:51;99900;;;10;89.6
51195;BME280;37259;49.972;19.850;2022-10-17T04:14:51;99910;;;10;89.5
51195;BME280;37259;49.972;19.850;2022-10-17T04:15:54;99910;;;10;89.5
51195;BME280;37259;49.972;19.850;2022-10-17T04:16:50;99910;;;10;89.5
51195;BME280;37259;49.972;19.850;2022-10-17T04:17:50;99910;;;10;89.4
51195;BME280;37259;49.972;19.850;2022-10-17T04:18:51;99910;;;9.9;89.3
51195;BME280;37259;49.972;19.850;2022-10-17T04:19:50;99910;;;9.9;89.3
51195;BME280;37259;49.972;19.850;2022-10-17T04:20:51;99910;;;9.9;89.2
51195;BME280;37259;49.972;19.850;2022-10-17T04:21:50;99910;;;9.9;89.1
51195;BME280;37259;49.972;19.850;2022-10-17T04:22:51;99910;;;9.9;89
51195;BME280;37259;49.972;19.850;2022-10-17T04:23:52;99900;;;9.9;89.4
51195;BME280;37259;49.972;19.850;2022-10-17T04:24:50;99900;;;9.9;89.4
51195;BME280;37259;49.972;19.850;2022-10-17T04:25:52;99910;;;9.9;89.7
51195;BME280;37259;49.972;19.850;2022-10-17T04:26:51;99910;;;9.8;89.6
51195;BME280;37259;49.972;19.850;2022-10-17T04:27:50;99910;;;9.8;89.6
51195;BME280;37259;49.972;19.850;2022-10-17T04:28:51;99910;;;9.8;89.6
51195;BME280;37259;49.972;19.850;2022-10-17T04:29:51;99910;;;9.8;89.6
51195;BME280;37259;49.972;19.850;2022-10-17T04:30:54;99910;;;9.8;89.6
51195;BME280;37259;49.972;19.850;2022-10-17T04:31:51;99910;;;9.8;89.6
51195;BME280;37259;49.972;19.850;2022-10-17T04:32:50;99910;;;9.8;89.6
51195;BME280;37259;49.972;19.850;2022-10-17T04:33:50;99910;;;9.8;89.5
51195;BME280;37259;49.972;19.850;2022-10-17T04:34:51;99910;;;9.8;89.5
51195;BME280;37259;49.972;19.850;2022-10-17T04:35:54;99920;;;9.8;89.5
51195;BME280;37259;49.972;19.850;2022-10-17T04:36:50;99920;;;9.8;89.5
51195;BME280;37259;49.972;19.850;2022-10-17T04:37:51;99920;;;9.8;89.5
51195;BME280;37259;49.972;19.850;2022-10-17T04:38:50;99920;;;9.8;89.5
51195;BME280;37259;49.972;19.850;2022-10-17T04:39:50;99920;;;9.8;89.5
51195;BME280;37259;49.972;19.850;2022-10-17T04:40:50;99910;;;9.8;89.4
51195;BME280;37259;49.972;19.850;2022-10-17T04:41:50;99910;;;9.8;89.4
51195;BME280;37259;49.972;19.850;2022-10-17T04:42:51;99910;;;9.8;89.3
51195;BME280;37259;49.972;19.850;2022-10-17T04:43:50;99910;;;9.8;89.3
51195;BME280;37259;49.972;19.850;2022-10-17T04:44:50;99910;;;9.7;89.4
51195;BME280;37259;49.972;19.850;2022-10-17T04:45:51;99910;;;9.7;89.5
51195;BME280;37259;49.972;19.850;2022-10-17T04:46:51;99910;;;9.7;89.5
51195;BME280;37259;49.972;19.850;2022-10-17T04:47:50;99910;;;9.8;89.5
51195;BME280;37259;49.972;19.850;2022-10-17T04:48:52;99910;;;9.8;89.5
51195;BME280;37259;49.972;19.850;2022-10-17T04:49:51;99910;;;9.7;89.4
51195;BME280;37259;49.972;19.850;2022-10-17T04:50:52;99910;;;9.7;89.3
51195;BME280;37259;49.972;19.850;2022-10-17T04:51:50;99910;;;9.7;89.3
51195;BME280;37259;49.972;19.850;2022-10-17T04:52:51;99910;;;9.7;89.3
51195;BME280;37259;49.972;19.850;2022-10-17T04:53:51;99910;;;9.7;89.2
51195;BME280;37259;49.972;19.850;2022-10-17T04:54:51;99920;;;9.7;89.2
51195;BME280;37259;49.972;19.850;2022-10-17T04:55:50;99920;;;9.7;89.2
51195;BME280;37259;49.972;19.850;2022-10-17T04:56:51;99920;;;9.7;89.2
51195;BME280;37259;49.972;19.850;2022-10-17T04:57:51;99920;;;9.7;89.2
51195;BME280;37259;49.972;19.850;2022-10-17T04:58:50;99920;;;9.7;89.2
51195;BME280;37259;49.972;19.850;2022-10-17T05:00:50;99920;;;9.7;89.2
51195;BME280;37259;49.972;19.850;2022-10-17T05:01:51;99920;;;9.7;89.2
51195;BME280;37259;49.972;19.850;2022-10-17T05:02:51;99930;;;9.7;89.3
51195;BME280;37259;49.972;19.850;2022-10-17T05:03:51;99930;;;9.7;89.3
51195;BME280;37259;49.972;19.850;2022-10-17T05:04:50;99930;;;9.7;89.3
51195;BME280;37259;49.972;19.850;2022-10-17T05:05:51;99930;;;9.7;89.3
51195;BME280;37259;49.972;19.850;2022-10-17T05:06:50;99940;;;9.7;89.4
51195;BME280;37259;49.972;19.850;2022-10-17T05:07:51;99940;;;9.7;89.4
51195;BME280;37259;49.972;19.850;2022-10-17T05:08:50;99940;;;9.7;89.3
51195;BME280;37259;49.972;19.850;2022-10-17T05:09:51;99940;;;9.7;89.3
51195;BME280;37259;49.972;19.850;2022-10-17T05:10:50;99940;;;9.6;89.2
51195;BME280;37259;49.972;19.850;2022-10-17T05:11:50;99940;;;9.6;89.2
51195;BME280;37259;49.972;19.850;2022-10-17T05:12:51;99940;;;9.6;89.2
51195;BME280;37259;49.972;19.850;2022-10-17T05:13:51;99940;;;9.6;89.2
51195;BME280;37259;49.972;19.850;2022-10-17T05:14:51;99940;;;9.6;89.1
51195;BME280;37259;49.972;19.850;2022-10-17T05:15:50;99940;;;9.6;89.1
51195;BME280;37259;49.972;19.850;2022-10-17T05:16:51;99940;;;9.6;89
51195;BME280;37259;49.972;19.850;2022-10-17T05:17:53;99940;;;9.6;88.9
51195;BME280;37259;49.972;19.850;2022-10-17T05:18:51;99940;;;9.6;88.9
51195;BME280;37259;49.972;19.850;2022-10-17T05:19:51;99940;;;9.6;88.7
51195;BME280;37259;49.972;19.850;2022-10-17T05:20:50;99940;;;9.6;88.7
51195;BME280;37259;49.972;19.850;2022-10-17T05:21:50;99940;;;9.6;88.6
51195;BME280;37259;49.972;19.850;2022-10-17T05:22:50;99940;;;9.6;88.6
51195;BME280;37259;49.972;19.850;2022-10-17T05:23:51;99940;;;9.5;88.4
51195;BME280;37259;49.972;19.850;2022-10-17T05:24:50;99940;;;9.5;88.4
51195;BME280;37259;49.972;19.850;2022-10-17T05:25:54;99940;;;9.5;88.4
51195;BME280;37259;49.972;19.850;2022-10-17T05:26:50;99940;;;9.5;88.4
51195;BME280;37259;49.972;19.850;2022-10-17T05:27:51;99940;;;9.5;88.4
51195;BME280;37259;49.972;19.850;2022-10-17T05:28:50;99950;;;9.5;88.5
51195;BME280;37259;49.972;19.850;2022-10-17T05:29:50;99950;;;9.5;88.5
51195;BME280;37259;49.972;19.850;2022-10-17T05:30:50;99950;;;9.5;88.6
51195;BME280;37259;49.972;19.850;2022-10-17T05:31:50;99950;;;9.5;88.5
51195;BME280;37259;49.972;19.850;2022-10-17T05:32:51;99950;;;9.5;88.5
51195;BME280;37259;49.972;19.850;2022-10-17T05:33:50;99940;;;9.5;88.5
51195;BME280;37259;49.972;19.850;2022-10-17T05:34:50;99940;;;9.5;88.5
51195;BME280;37259;49.972;19.850;2022-10-17T05:35:50;99940;;;9.6;88.5
51195;BME280;37259;49.972;19.850;2022-10-17T05:36:51;99940;;;9.6;88.5
51195;BME280;37259;49.972;19.850;2022-10-17T05:37:51;99940;;;9.6;88.6
51195;BME280;37259;49.972;19.850;2022-10-17T05:38:51;99940;;;9.6;88.6
51195;BME280;37259;49.972;19.850;2022-10-17T05:39:51;99940;;;9.6;88.8